sensor_id;sensor_type;location;lat;lon;timestamp;temperature;humidity
43099;DHT22;28715;51.988;6.020;2023-03-16T00:02:24;6.30;84.70
43099;DHT22;28715;51.988;6.020;2023-03-16T00:11:41;6.30;84.90
43099;DHT22;28715;51.988;6.020;2023-03-16T00:14:57;6.40;84.70
43099;DHT22;28715;51.988;6.020;2023-03-16T00:17:53;6.40;84.80
43099;DHT22;28715;51.988;6.020;2023-03-16T00:20:32;6.40;84.80
43099;DHT22;28715;51.988;6.020;2023-03-16T00:23:03;6.40;84.70
43099;DHT22;28715;51.988;6.020;2023-03-16T00:25:46;6.40;84.50
43099;DHT22;28715;51.988;6.020;2023-03-16T00:28:12;6.40;84.50
43099;DHT22;28715;51.988;6.020;2023-03-16T00:30:38;6.40;84.40
43099;DHT22;28715;51.988;6.020;2023-03-16T00:33:04;6.50;84.60
43099;DHT22;28715;51.988;6.020;2023-03-16T00:35:29;6.50;84.70
43099;DHT22;28715;51.988;6.020;2023-03-16T00:37:59;6.50;84.70
43099;DHT22;28715;51.988;6.020;2023-03-16T00:40:24;6.50;84.70
43099;DHT22;28715;51.988;6.020;2023-03-16T00:42:50;6.40;84.90
43099;DHT22;28715;51.988;6.020;2023-03-16T00:45:21;6.50;85.10
43099;DHT22;28715;51.988;6.020;2023-03-16T00:47:48;6.50;85.30
43099;DHT22;28715;51.988;6.020;2023-03-16T00:50:14;6.50;85.30
43099;DHT22;28715;51.988;6.020;2023-03-16T00:52:40;6.40;85.60
43099;DHT22;28715;51.988;6.020;2023-03-16T00:55:09;6.40;85.80
43099;DHT22;28715;51.988;6.020;2023-03-16T00:57:47;6.40;86.20
43099;DHT22;28715;51.988;6.020;2023-03-16T01:00:27;6.40;86.40
43099;DHT22;28715;51.988;6.020;2023-03-16T01:03:00;6.40;86.70
43099;DHT22;28715;51.988;6.020;2023-03-16T01:05:38;6.40;86.70
43099;DHT22;28715;51.988;6.020;2023-03-16T01:08:19;6.40;86.60
43099;DHT22;28715;51.988;6.020;2023-03-16T01:10:46;6.40;86.80
43099;DHT22;28715;51.988;6.020;2023-03-16T01:13:14;6.40;86.50
43099;DHT22;28715;51.988;6.020;2023-03-16T01:15:40;6.40;86.40
43099;DHT22;28715;51.988;6.020;2023-03-16T01:18:18;6.30;86.50
43099;DHT22;28715;51.988;6.020;2023-03-16T01:20:49;6.40;86.40
43099;DHT22;28715;51.988;6.020;2023-03-16T01:23:22;6.30;86.70
43099;DHT22;28715;51.988;6.020;2023-03-16T01:28:33;6.40;87.10
43099;DHT22;28715;51.988;6.020;2023-03-16T01:31:11;6.30;87.40
43099;DHT22;28715;51.988;6.020;2023-03-16T01:34:01;6.30;87.60
43099;DHT22;28715;51.988;6.020;2023-03-16T01:36:37;6.30;87.90
43099;DHT22;28715;51.988;6.020;2023-03-16T01:39:16;6.30;88.00
43099;DHT22;28715;51.988;6.020;2023-03-16T01:41:48;6.30;88.30
43099;DHT22;28715;51.988;6.020;2023-03-16T01:44:20;6.30;88.40
43099;DHT22;28715;51.988;6.020;2023-03-16T01:46:51;6.20;88.70
43099;DHT22;28715;51.988;6.020;2023-03-16T01:52:07;6.20;90.00
43099;DHT22;28715;51.988;6.020;2023-03-16T01:54:45;6.10;89.70
43099;DHT22;28715;51.988;6.020;2023-03-16T01:57:18;6.20;89.90
43099;DHT22;28715;51.988;6.020;2023-03-16T02:00:16;6.10;89.90
43099;DHT22;28715;51.988;6.020;2023-03-16T02:02:55;6.10;90.10
43099;DHT22;28715;51.988;6.020;2023-03-16T02:08:41;6.00;90.40
43099;DHT22;28715;51.988;6.020;2023-03-16T02:11:17;6.00;90.40
43099;DHT22;28715;51.988;6.020;2023-03-16T02:13:51;6.00;90.50
43099;DHT22;28715;51.988;6.020;2023-03-16T02:16:22;5.90;90.60
43099;DHT22;28715;51.988;6.020;2023-03-16T02:18:51;5.90;90.70
43099;DHT22;28715;51.988;6.020;2023-03-16T02:24:18;6.00;90.70
43099;DHT22;28715;51.988;6.020;2023-03-16T02:26:51;6.00;90.80
43099;DHT22;28715;51.988;6.020;2023-03-16T02:30:05;5.90;90.90
43099;DHT22;28715;51.988;6.020;2023-03-16T02:32:26;5.90;91.00
43099;DHT22;28715;51.988;6.020;2023-03-16T02:35:17;5.90;91.00
43099;DHT22;28715;51.988;6.020;2023-03-16T02:38:07;5.90;91.20
43099;DHT22;28715;51.988;6.020;2023-03-16T02:40:43;5.90;91.20
43099;DHT22;28715;51.988;6.020;2023-03-16T02:43:33;5.90;91.20
43099;DHT22;28715;51.988;6.020;2023-03-16T02:46:03;6.00;91.20
43099;DHT22;28715;51.988;6.020;2023-03-16T02:48:48;5.90;91.30
43099;DHT22;28715;51.988;6.020;2023-03-16T02:51:17;6.00;91.50
43099;DHT22;28715;51.988;6.020;2023-03-16T02:53:43;6.00;91.40
43099;DHT22;28715;51.988;6.020;2023-03-16T02:56:17;6.00;91.40
43099;DHT22;28715;51.988;6.020;2023-03-16T02:58:46;6.00;91.40
43099;DHT22;28715;51.988;6.020;2023-03-16T03:01:22;6.00;91.40
43099;DHT22;28715;51.988;6.020;2023-03-16T03:03:48;6.00;91.40
43099;DHT22;28715;51.988;6.020;2023-03-16T03:14:21;6.10;91.20
43099;DHT22;28715;51.988;6.020;2023-03-16T03:17:23;6.10;91.10
43099;DHT22;28715;51.988;6.020;2023-03-16T03:20:09;6.10;91.30
43099;DHT22;28715;51.988;6.020;2023-03-16T03:32:40;6.10;91.10
43099;DHT22;28715;51.988;6.020;2023-03-16T03:35:17;6.20;91.10
43099;DHT22;28715;51.988;6.020;2023-03-16T03:37:43;6.20;91.20
43099;DHT22;28715;51.988;6.020;2023-03-16T03:40:15;6.20;91.30
43099;DHT22;28715;51.988;6.020;2023-03-16T03:42:44;6.20;91.30
43099;DHT22;28715;51.988;6.020;2023-03-16T03:45:20;6.20;91.20
43099;DHT22;28715;51.988;6.020;2023-03-16T03:47:48;6.30;91.20
43099;DHT22;28715;51.988;6.020;2023-03-16T03:50:16;6.30;91.20
43099;DHT22;28715;51.988;6.020;2023-03-16T03:52:49;6.30;91.20
43099;DHT22;28715;51.988;6.020;2023-03-16T03:55:20;6.40;91.30
43099;DHT22;28715;51.988;6.020;2023-03-16T03:58:00;6.40;91.50
43099;DHT22;28715;51.988;6.020;2023-03-16T04:00:32;6.40;91.20
43099;DHT22;28715;51.988;6.020;2023-03-16T04:03:04;6.30;91.20
43099;DHT22;28715;51.988;6.020;2023-03-16T04:05:30;6.30;91.30
43099;DHT22;28715;51.988;6.020;2023-03-16T04:07:57;6.30;91.40
43099;DHT22;28715;51.988;6.020;2023-03-16T04:10:27;6.20;91.50
43099;DHT22;28715;51.988;6.020;2023-03-16T04:12:55;6.20;91.60
43099;DHT22;28715;51.988;6.020;2023-03-16T04:15:29;6.10;91.70
43099;DHT22;28715;51.988;6.020;2023-03-16T04:17:54;6.10;91.80
43099;DHT22;28715;51.988;6.020;2023-03-16T04:20:20;6.10;91.80
43099;DHT22;28715;51.988;6.020;2023-03-16T04:22:46;6.10;91.90
43099;DHT22;28715;51.988;6.020;2023-03-16T04:25:16;6.00;92.00
43099;DHT22;28715;51.988;6.020;2023-03-16T04:28:02;6.10;92.10
43099;DHT22;28715;51.988;6.020;2023-03-16T04:30:31;6.00;92.10
43099;DHT22;28715;51.988;6.020;2023-03-16T04:32:57;6.00;92.30
43099;DHT22;28715;51.988;6.020;2023-03-16T04:35:27;6.00;92.40
43099;DHT22;28715;51.988;6.020;2023-03-16T04:38:05;6.00;92.50
43099;DHT22;28715;51.988;6.020;2023-03-16T04:40:32;6.00;92.50
43099;DHT22;28715;51.988;6.020;2023-03-16T04:43:00;6.00;92.40
43099;DHT22;28715;51.988;6.020;2023-03-16T04:45:27;6.00;92.50
43099;DHT22;28715;51.988;6.020;2023-03-16T04:47:55;6.00;92.50
43099;DHT22;28715;51.988;6.020;2023-03-16T04:50:28;6.00;92.50
43099;DHT22;28715;51.988;6.020;2023-03-16T04:53:03;6.10;92.50
43099;DHT22;28715;51.988;6.020;2023-03-16T04:55:44;6.10;92.50
43099;DHT22;28715;51.988;6.020;2023-03-16T04:58:18;6.10;92.50
43099;DHT22;28715;51.988;6.020;2023-03-16T05:00:43;6.10;92.50
43099;DHT22;28715;51.988;6.020;2023-03-16T05:03:15;6.10;92.50
43099;DHT22;28715;51.988;6.020;2023-03-16T05:05:41;6.10;92.50
43099;DHT22;28715;51.988;6.020;2023-03-16T05:08:07;6.10;92.60
43099;DHT22;28715;51.988;6.020;2023-03-16T05:10:33;6.10;92.50
43099;DHT22;28715;51.988;6.020;2023-03-16T05:13:03;6.10;92.50
43099;DHT22;28715;51.988;6.020;2023-03-16T05:15:32;6.00;92.60
43099;DHT22;28715;51.988;6.020;2023-03-16T05:18:05;5.90;92.90
43099;DHT22;28715;51.988;6.020;2023-03-16T05:20:33;5.90;92.70
43099;DHT22;28715;51.988;6.020;2023-03-16T05:23:03;5.90;92.80
43099;DHT22;28715;51.988;6.020;2023-03-16T05:25:31;5.80;92.70
43099;DHT22;28715;51.988;6.020;2023-03-16T05:27:57;5.80;92.90
43099;DHT22;28715;51.988;6.020;2023-03-16T05:30:25;5.80;92.90
43099;DHT22;28715;51.988;6.020;2023-03-16T05:32:55;5.80;93.00
43099;DHT22;28715;51.988;6.020;2023-03-16T05:35:22;5.80;92.90
43099;DHT22;28715;51.988;6.020;2023-03-16T05:38:00;5.80;92.90
43099;DHT22;28715;51.988;6.020;2023-03-16T05:40:31;5.90;93.10
43099;DHT22;28715;51.988;6.020;2023-03-16T05:43:00;5.90;93.00
43099;DHT22;28715;51.988;6.020;2023-03-16T05:45:26;5.90;93.10
43099;DHT22;28715;51.988;6.020;2023-03-16T05:47:51;5.90;93.00
43099;DHT22;28715;51.988;6.020;2023-03-16T05:50:17;5.90;92.90
43099;DHT22;28715;51.988;6.020;2023-03-16T05:52:44;5.90;93.30
43099;DHT22;28715;51.988;6.020;2023-03-16T05:55:16;5.90;93.00
43099;DHT22;28715;51.988;6.020;2023-03-16T05:57:45;6.00;93.00
43099;DHT22;28715;51.988;6.020;2023-03-16T06:00:55;6.00;93.00
43099;DHT22;28715;51.988;6.020;2023-03-16T06:03:26;6.00;92.90
43099;DHT22;28715;51.988;6.020;2023-03-16T06:06:01;6.00;92.90
43099;DHT22;28715;51.988;6.020;2023-03-16T06:08:39;6.10;93.10
43099;DHT22;28715;51.988;6.020;2023-03-16T06:11:08;6.10;93.00
43099;DHT22;28715;51.988;6.020;2023-03-16T06:13:42;6.10;93.10
43099;DHT22;28715;51.988;6.020;2023-03-16T06:16:08;6.10;93.00
43099;DHT22;28715;51.988;6.020;2023-03-16T06:18:40;6.10;93.00
43099;DHT22;28715;51.988;6.020;2023-03-16T06:21:14;6.10;93.00
43099;DHT22;28715;51.988;6.020;2023-03-16T06:23:39;6.10;93.10
43099;DHT22;28715;51.988;6.020;2023-03-16T06:26:08;6.10;93.00
43099;DHT22;28715;51.988;6.020;2023-03-16T06:28:38;6.10;93.10
43099;DHT22;28715;51.988;6.020;2023-03-16T06:31:06;6.10;93.10
43099;DHT22;28715;51.988;6.020;2023-03-16T06:33:32;6.10;93.30
43099;DHT22;28715;51.988;6.020;2023-03-16T06:36:07;6.10;93.30
43099;DHT22;28715;51.988;6.020;2023-03-16T06:39:01;6.20;93.40
43099;DHT22;28715;51.988;6.020;2023-03-16T06:41:53;6.20;93.40
43099;DHT22;28715;51.988;6.020;2023-03-16T06:45:09;6.20;93.50
43099;DHT22;28715;51.988;6.020;2023-03-16T06:51:23;6.20;93.60
43099;DHT22;28715;51.988;6.020;2023-03-16T06:54:11;6.20;93.80
43099;DHT22;28715;51.988;6.020;2023-03-16T06:56:39;6.20;93.90
43099;DHT22;28715;51.988;6.020;2023-03-16T06:59:06;6.20;94.00
43099;DHT22;28715;51.988;6.020;2023-03-16T07:01:31;6.30;94.10
43099;DHT22;28715;51.988;6.020;2023-03-16T07:03:57;6.30;94.10
43099;DHT22;28715;51.988;6.020;2023-03-16T07:06:22;6.40;94.10
43099;DHT22;28715;51.988;6.020;2023-03-16T07:08:48;6.40;94.00
43099;DHT22;28715;51.988;6.020;2023-03-16T07:11:14;6.40;94.10
43099;DHT22;28715;51.988;6.020;2023-03-16T07:13:40;6.40;94.20
43099;DHT22;28715;51.988;6.020;2023-03-16T07:16:06;6.40;94.40
43099;DHT22;28715;51.988;6.020;2023-03-16T07:18:32;6.30;94.40
43099;DHT22;28715;51.988;6.020;2023-03-16T07:20:57;6.30;94.60
43099;DHT22;28715;51.988;6.020;2023-03-16T07:23:24;6.30;94.90
43099;DHT22;28715;51.988;6.020;2023-03-16T07:25:50;6.30;95.00
43099;DHT22;28715;51.988;6.020;2023-03-16T07:28:19;6.30;95.20
43099;DHT22;28715;51.988;6.020;2023-03-16T07:30:45;6.30;95.30
43099;DHT22;28715;51.988;6.020;2023-03-16T07:33:11;6.30;95.30
43099;DHT22;28715;51.988;6.020;2023-03-16T07:35:37;6.30;95.50
43099;DHT22;28715;51.988;6.020;2023-03-16T07:38:03;6.40;95.70
43099;DHT22;28715;51.988;6.020;2023-03-16T07:40:29;6.50;95.70
43099;DHT22;28715;51.988;6.020;2023-03-16T07:42:54;6.50;95.60
43099;DHT22;28715;51.988;6.020;2023-03-16T07:45:20;6.50;95.40
43099;DHT22;28715;51.988;6.020;2023-03-16T07:47:46;6.50;95.40
43099;DHT22;28715;51.988;6.020;2023-03-16T07:50:11;6.60;95.70
43099;DHT22;28715;51.988;6.020;2023-03-16T07:52:38;6.50;95.70
43099;DHT22;28715;51.988;6.020;2023-03-16T07:55:05;6.60;95.80
43099;DHT22;28715;51.988;6.020;2023-03-16T07:57:30;6.60;95.90
43099;DHT22;28715;51.988;6.020;2023-03-16T07:59:56;6.50;95.80
43099;DHT22;28715;51.988;6.020;2023-03-16T08:02:22;6.50;96.10
43099;DHT22;28715;51.988;6.020;2023-03-16T08:04:48;6.60;96.30
43099;DHT22;28715;51.988;6.020;2023-03-16T08:07:14;6.50;96.70
43099;DHT22;28715;51.988;6.020;2023-03-16T08:09:40;6.60;96.70
43099;DHT22;28715;51.988;6.020;2023-03-16T08:12:07;6.60;96.80
43099;DHT22;28715;51.988;6.020;2023-03-16T08:14:33;6.60;96.60
43099;DHT22;28715;51.988;6.020;2023-03-16T08:17:08;6.60;96.80
43099;DHT22;28715;51.988;6.020;2023-03-16T08:19:33;6.60;96.80
43099;DHT22;28715;51.988;6.020;2023-03-16T08:21:59;6.60;96.90
43099;DHT22;28715;51.988;6.020;2023-03-16T08:24:28;6.60;96.90
43099;DHT22;28715;51.988;6.020;2023-03-16T08:26:55;6.60;96.80
43099;DHT22;28715;51.988;6.020;2023-03-16T08:29:22;6.60;97.10
43099;DHT22;28715;51.988;6.020;2023-03-16T08:31:47;6.60;97.20
43099;DHT22;28715;51.988;6.020;2023-03-16T08:34:13;6.70;97.20
43099;DHT22;28715;51.988;6.020;2023-03-16T08:36:40;6.70;97.30
43099;DHT22;28715;51.988;6.020;2023-03-16T08:39:08;6.70;97.30
43099;DHT22;28715;51.988;6.020;2023-03-16T08:41:34;6.70;97.30
43099;DHT22;28715;51.988;6.020;2023-03-16T08:43:59;6.80;97.50
43099;DHT22;28715;51.988;6.020;2023-03-16T08:46:25;6.80;97.60
43099;DHT22;28715;51.988;6.020;2023-03-16T08:48:51;6.80;97.60
43099;DHT22;28715;51.988;6.020;2023-03-16T08:51:17;6.90;97.60
43099;DHT22;28715;51.988;6.020;2023-03-16T08:53:43;7.00;97.70
43099;DHT22;28715;51.988;6.020;2023-03-16T08:56:11;7.00;97.80
43099;DHT22;28715;51.988;6.020;2023-03-16T08:58:37;7.10;97.70
43099;DHT22;28715;51.988;6.020;2023-03-16T09:01:04;7.10;97.70
43099;DHT22;28715;51.988;6.020;2023-03-16T09:03:31;7.20;97.60
43099;DHT22;28715;51.988;6.020;2023-03-16T09:06:06;7.20;97.60
43099;DHT22;28715;51.988;6.020;2023-03-16T09:08:32;7.20;97.60
43099;DHT22;28715;51.988;6.020;2023-03-16T09:11:02;7.30;97.50
43099;DHT22;28715;51.988;6.020;2023-03-16T09:13:29;7.20;97.30
43099;DHT22;28715;51.988;6.020;2023-03-16T09:15:55;7.20;97.40
43099;DHT22;28715;51.988;6.020;2023-03-16T09:18:21;7.20;97.30
43099;DHT22;28715;51.988;6.020;2023-03-16T09:20:47;7.30;97.20
43099;DHT22;28715;51.988;6.020;2023-03-16T09:23:14;7.30;97.20
43099;DHT22;28715;51.988;6.020;2023-03-16T09:25:40;7.40;97.30
43099;DHT22;28715;51.988;6.020;2023-03-16T09:28:06;7.40;97.10
43099;DHT22;28715;51.988;6.020;2023-03-16T09:30:31;7.40;97.10
43099;DHT22;28715;51.988;6.020;2023-03-16T09:32:57;7.30;97.20
43099;DHT22;28715;51.988;6.020;2023-03-16T09:35:23;7.40;97.30
43099;DHT22;28715;51.988;6.020;2023-03-16T09:37:49;7.40;97.20
43099;DHT22;28715;51.988;6.020;2023-03-16T09:40:22;7.50;97.20
43099;DHT22;28715;51.988;6.020;2023-03-16T09:43:26;7.50;97.40
43099;DHT22;28715;51.988;6.020;2023-03-16T09:48:25;7.70;97.10
43099;DHT22;28715;51.988;6.020;2023-03-16T09:50:52;7.70;97.10
43099;DHT22;28715;51.988;6.020;2023-03-16T09:53:22;7.80;97.10
43099;DHT22;28715;51.988;6.020;2023-03-16T09:55:57;7.90;97.10
43099;DHT22;28715;51.988;6.020;2023-03-16T09:58:23;7.90;97.00
43099;DHT22;28715;51.988;6.020;2023-03-16T10:01:08;7.90;96.90
43099;DHT22;28715;51.988;6.020;2023-03-16T10:06:31;7.90;96.80
43099;DHT22;28715;51.988;6.020;2023-03-16T10:09:06;8.00;96.80
43099;DHT22;28715;51.988;6.020;2023-03-16T10:11:37;8.00;96.80
43099;DHT22;28715;51.988;6.020;2023-03-16T10:17:12;8.10;96.80
43099;DHT22;28715;51.988;6.020;2023-03-16T10:22:24;8.10;96.60
43099;DHT22;28715;51.988;6.020;2023-03-16T10:25:18;8.20;96.50
43099;DHT22;28715;51.988;6.020;2023-03-16T10:27:45;8.20;96.20
43099;DHT22;28715;51.988;6.020;2023-03-16T10:32:44;8.30;96.20
43099;DHT22;28715;51.988;6.020;2023-03-16T10:38:08;8.50;96.20
43099;DHT22;28715;51.988;6.020;2023-03-16T10:40:38;8.60;95.60
43099;DHT22;28715;51.988;6.020;2023-03-16T10:43:05;8.70;95.60
43099;DHT22;28715;51.988;6.020;2023-03-16T10:45:34;9.00;96.10
43099;DHT22;28715;51.988;6.020;2023-03-16T10:48:08;9.40;95.70
43099;DHT22;28715;51.988;6.020;2023-03-16T10:50:37;9.70;95.10
43099;DHT22;28715;51.988;6.020;2023-03-16T10:53:15;9.90;94.40
43099;DHT22;28715;51.988;6.020;2023-03-16T10:55:55;10.10;94.00
43099;DHT22;28715;51.988;6.020;2023-03-16T10:58:29;10.20;93.80
43099;DHT22;28715;51.988;6.020;2023-03-16T11:04:12;10.40;93.10
43099;DHT22;28715;51.988;6.020;2023-03-16T11:06:50;10.30;92.90
43099;DHT22;28715;51.988;6.020;2023-03-16T11:09:24;10.50;93.10
43099;DHT22;28715;51.988;6.020;2023-03-16T11:11:52;10.70;93.10
43099;DHT22;28715;51.988;6.020;2023-03-16T11:14:24;10.90;92.50
43099;DHT22;28715;51.988;6.020;2023-03-16T11:22:14;11.20;91.90
43099;DHT22;28715;51.988;6.020;2023-03-16T11:25:01;11.30;91.70
43099;DHT22;28715;51.988;6.020;2023-03-16T11:33:20;11.30;90.40
43099;DHT22;28715;51.988;6.020;2023-03-16T11:44:35;11.30;90.40
43099;DHT22;28715;51.988;6.020;2023-03-16T11:47:23;11.20;90.10
43099;DHT22;28715;51.988;6.020;2023-03-16T11:50:16;11.20;90.40
43099;DHT22;28715;51.988;6.020;2023-03-16T11:52:49;11.10;90.30
43099;DHT22;28715;51.988;6.020;2023-03-16T12:00:50;11.30;90.40
43099;DHT22;28715;51.988;6.020;2023-03-16T12:11:41;11.40;90.20
43099;DHT22;28715;51.988;6.020;2023-03-16T12:14:40;11.30;89.70
43099;DHT22;28715;51.988;6.020;2023-03-16T12:17:18;11.30;89.90
43099;DHT22;28715;51.988;6.020;2023-03-16T12:20:12;11.40;89.60
43099;DHT22;28715;51.988;6.020;2023-03-16T12:22:47;11.40;89.10
43099;DHT22;28715;51.988;6.020;2023-03-16T12:25:20;11.50;89.80
43099;DHT22;28715;51.988;6.020;2023-03-16T12:27:50;11.60;90.00
43099;DHT22;28715;51.988;6.020;2023-03-16T12:32:54;11.80;89.10
43099;DHT22;28715;51.988;6.020;2023-03-16T12:35:24;11.90;88.80
43099;DHT22;28715;51.988;6.020;2023-03-16T12:40:46;11.90;87.80
43099;DHT22;28715;51.988;6.020;2023-03-16T12:43:50;11.90;88.70
43099;DHT22;28715;51.988;6.020;2023-03-16T12:46:37;12.00;87.60
43099;DHT22;28715;51.988;6.020;2023-03-16T12:49:05;12.00;87.30
43099;DHT22;28715;51.988;6.020;2023-03-16T12:51:36;12.10;87.40
43099;DHT22;28715;51.988;6.020;2023-03-16T12:54:03;12.30;88.20
43099;DHT22;28715;51.988;6.020;2023-03-16T12:56:32;12.40;87.20
43099;DHT22;28715;51.988;6.020;2023-03-16T12:59:03;12.50;86.10
43099;DHT22;28715;51.988;6.020;2023-03-16T13:01:47;12.50;85.20
43099;DHT22;28715;51.988;6.020;2023-03-16T13:04:16;12.60;86.40
43099;DHT22;28715;51.988;6.020;2023-03-16T13:06:58;12.70;84.40
43099;DHT22;28715;51.988;6.020;2023-03-16T13:09:27;12.70;85.60
43099;DHT22;28715;51.988;6.020;2023-03-16T13:11:56;12.70;85.30
43099;DHT22;28715;51.988;6.020;2023-03-16T13:14:39;12.70;85.70
43099;DHT22;28715;51.988;6.020;2023-03-16T13:20:23;12.80;85.00
43099;DHT22;28715;51.988;6.020;2023-03-16T13:23:19;12.90;84.60
43099;DHT22;28715;51.988;6.020;2023-03-16T13:28:37;13.00;83.20
43099;DHT22;28715;51.988;6.020;2023-03-16T13:33:47;13.10;83.90
43099;DHT22;28715;51.988;6.020;2023-03-16T13:36:13;13.00;83.80
43099;DHT22;28715;51.988;6.020;2023-03-16T13:38:39;13.10;83.60
43099;DHT22;28715;51.988;6.020;2023-03-16T13:41:10;13.00;84.10
43099;DHT22;28715;51.988;6.020;2023-03-16T13:43:41;13.10;85.20
43099;DHT22;28715;51.988;6.020;2023-03-16T13:46:16;13.20;84.10
43099;DHT22;28715;51.988;6.020;2023-03-16T13:48:42;13.20;83.20
43099;DHT22;28715;51.988;6.020;2023-03-16T13:51:19;13.20;83.60
43099;DHT22;28715;51.988;6.020;2023-03-16T13:53:47;13.20;82.90
43099;DHT22;28715;51.988;6.020;2023-03-16T13:56:16;13.30;83.60
43099;DHT22;28715;51.988;6.020;2023-03-16T13:58:46;13.30;84.50
43099;DHT22;28715;51.988;6.020;2023-03-16T14:01:23;13.40;83.10
43099;DHT22;28715;51.988;6.020;2023-03-16T14:03:50;13.50;83.00
43099;DHT22;28715;51.988;6.020;2023-03-16T14:06:25;13.50;83.20
43099;DHT22;28715;51.988;6.020;2023-03-16T14:08:57;13.60;83.10
43099;DHT22;28715;51.988;6.020;2023-03-16T14:11:25;13.50;83.10
43099;DHT22;28715;51.988;6.020;2023-03-16T14:13:56;13.50;82.60
43099;DHT22;28715;51.988;6.020;2023-03-16T14:16:24;13.60;82.10
43099;DHT22;28715;51.988;6.020;2023-03-16T14:19:22;13.50;82.70
43099;DHT22;28715;51.988;6.020;2023-03-16T14:22:01;13.40;81.50
43099;DHT22;28715;51.988;6.020;2023-03-16T14:24:37;13.40;82.30
43099;DHT22;28715;51.988;6.020;2023-03-16T14:27:24;13.50;82.60
43099;DHT22;28715;51.988;6.020;2023-03-16T14:29:57;13.40;82.40
43099;DHT22;28715;51.988;6.020;2023-03-16T14:32:28;13.40;82.80
43099;DHT22;28715;51.988;6.020;2023-03-16T14:35:16;13.40;82.20
43099;DHT22;28715;51.988;6.020;2023-03-16T14:37:50;13.40;81.90
43099;DHT22;28715;51.988;6.020;2023-03-16T14:40:50;13.40;83.10
43099;DHT22;28715;51.988;6.020;2023-03-16T14:43:19;13.50;82.40
43099;DHT22;28715;51.988;6.020;2023-03-16T14:45:45;13.60;83.20
43099;DHT22;28715;51.988;6.020;2023-03-16T14:48:23;13.60;82.70
43099;DHT22;28715;51.988;6.020;2023-03-16T14:54:18;13.60;82.70
43099;DHT22;28715;51.988;6.020;2023-03-16T14:56:54;13.60;82.90
43099;DHT22;28715;51.988;6.020;2023-03-16T14:59:26;13.60;83.50
43099;DHT22;28715;51.988;6.020;2023-03-16T15:01:54;13.60;83.30
43099;DHT22;28715;51.988;6.020;2023-03-16T15:04:30;13.70;83.50
43099;DHT22;28715;51.988;6.020;2023-03-16T15:07:00;13.70;84.10
43099;DHT22;28715;51.988;6.020;2023-03-16T15:09:36;13.70;82.70
43099;DHT22;28715;51.988;6.020;2023-03-16T15:12:03;13.70;82.30
43099;DHT22;28715;51.988;6.020;2023-03-16T15:14:29;13.70;84.10
43099;DHT22;28715;51.988;6.020;2023-03-16T15:17:13;13.80;84.00
43099;DHT22;28715;51.988;6.020;2023-03-16T15:19:39;13.80;84.00
43099;DHT22;28715;51.988;6.020;2023-03-16T15:22:05;13.90;83.60
43099;DHT22;28715;51.988;6.020;2023-03-16T15:24:31;14.00;83.90
43099;DHT22;28715;51.988;6.020;2023-03-16T15:26:58;14.00;84.30
43099;DHT22;28715;51.988;6.020;2023-03-16T15:29:24;14.10;84.70
43099;DHT22;28715;51.988;6.020;2023-03-16T15:31:52;14.20;84.60
43099;DHT22;28715;51.988;6.020;2023-03-16T15:34:18;14.20;83.50
43099;DHT22;28715;51.988;6.020;2023-03-16T15:36:50;14.30;84.40
43099;DHT22;28715;51.988;6.020;2023-03-16T15:39:21;14.40;82.80
43099;DHT22;28715;51.988;6.020;2023-03-16T15:41:47;14.40;79.60
43099;DHT22;28715;51.988;6.020;2023-03-16T15:44:13;14.40;79.30
43099;DHT22;28715;51.988;6.020;2023-03-16T15:46:39;14.40;79.80
43099;DHT22;28715;51.988;6.020;2023-03-16T15:49:04;14.50;82.30
43099;DHT22;28715;51.988;6.020;2023-03-16T15:51:31;14.50;82.60
43099;DHT22;28715;51.988;6.020;2023-03-16T15:53:59;14.50;83.40
43099;DHT22;28715;51.988;6.020;2023-03-16T15:56:29;14.50;83.00
43099;DHT22;28715;51.988;6.020;2023-03-16T15:58:58;14.60;83.80
43099;DHT22;28715;51.988;6.020;2023-03-16T16:01:27;14.70;82.30
43099;DHT22;28715;51.988;6.020;2023-03-16T16:03:55;14.60;82.50
43099;DHT22;28715;51.988;6.020;2023-03-16T16:06:21;14.70;82.40
43099;DHT22;28715;51.988;6.020;2023-03-16T16:08:48;14.70;81.90
43099;DHT22;28715;51.988;6.020;2023-03-16T16:11:24;14.70;82.20
43099;DHT22;28715;51.988;6.020;2023-03-16T16:13:53;14.60;81.80
43099;DHT22;28715;51.988;6.020;2023-03-16T16:16:19;14.50;80.70
43099;DHT22;28715;51.988;6.020;2023-03-16T16:18:46;14.50;81.70
43099;DHT22;28715;51.988;6.020;2023-03-16T16:21:23;14.50;81.50
43099;DHT22;28715;51.988;6.020;2023-03-16T16:23:50;14.50;82.30
43099;DHT22;28715;51.988;6.020;2023-03-16T16:26:24;14.40;81.90
43099;DHT22;28715;51.988;6.020;2023-03-16T16:28:51;14.30;81.50
43099;DHT22;28715;51.988;6.020;2023-03-16T16:31:18;14.30;81.60
43099;DHT22;28715;51.988;6.020;2023-03-16T16:33:50;14.30;81.30
43099;DHT22;28715;51.988;6.020;2023-03-16T16:36:20;14.20;81.70
43099;DHT22;28715;51.988;6.020;2023-03-16T16:38:47;14.10;81.90
43099;DHT22;28715;51.988;6.020;2023-03-16T16:41:25;14.10;82.10
43099;DHT22;28715;51.988;6.020;2023-03-16T16:43:53;14.00;81.90
43099;DHT22;28715;51.988;6.020;2023-03-16T16:46:26;14.00;82.30
43099;DHT22;28715;51.988;6.020;2023-03-16T16:49:26;13.90;82.20
43099;DHT22;28715;51.988;6.020;2023-03-16T16:51:56;13.90;82.70
43099;DHT22;28715;51.988;6.020;2023-03-16T16:54:28;13.90;83.10
43099;DHT22;28715;51.988;6.020;2023-03-16T16:56:55;13.80;83.30
43099;DHT22;28715;51.988;6.020;2023-03-16T16:59:28;13.80;83.30
43099;DHT22;28715;51.988;6.020;2023-03-16T17:01:54;13.80;83.50
43099;DHT22;28715;51.988;6.020;2023-03-16T17:04:23;13.70;83.50
43099;DHT22;28715;51.988;6.020;2023-03-16T17:06:50;13.70;83.60
43099;DHT22;28715;51.988;6.020;2023-03-16T17:09:23;13.60;83.40
43099;DHT22;28715;51.988;6.020;2023-03-16T17:11:49;13.60;83.60
43099;DHT22;28715;51.988;6.020;2023-03-16T17:14:17;13.50;83.50
43099;DHT22;28715;51.988;6.020;2023-03-16T17:16:44;13.40;83.70
43099;DHT22;28715;51.988;6.020;2023-03-16T17:19:21;13.40;83.90
43099;DHT22;28715;51.988;6.020;2023-03-16T17:21:48;13.30;83.90
43099;DHT22;28715;51.988;6.020;2023-03-16T17:24:15;13.20;84.00
43099;DHT22;28715;51.988;6.020;2023-03-16T17:26:47;13.10;84.10
43099;DHT22;28715;51.988;6.020;2023-03-16T17:29:17;13.10;84.00
43099;DHT22;28715;51.988;6.020;2023-03-16T17:31:45;13.00;84.20
43099;DHT22;28715;51.988;6.020;2023-03-16T17:34:20;12.90;83.70
43099;DHT22;28715;51.988;6.020;2023-03-16T17:36:46;12.80;83.60
43099;DHT22;28715;51.988;6.020;2023-03-16T17:42:08;12.70;84.40
43099;DHT22;28715;51.988;6.020;2023-03-16T17:44:39;12.60;84.60
43099;DHT22;28715;51.988;6.020;2023-03-16T17:47:21;12.60;85.10
43099;DHT22;28715;51.988;6.020;2023-03-16T17:49:47;12.50;85.50
43099;DHT22;28715;51.988;6.020;2023-03-16T17:52:31;12.40;84.90
43099;DHT22;28715;51.988;6.020;2023-03-16T17:54:57;12.30;84.90
43099;DHT22;28715;51.988;6.020;2023-03-16T17:57:25;12.20;84.80
43099;DHT22;28715;51.988;6.020;2023-03-16T17:59:52;12.20;84.60
43099;DHT22;28715;51.988;6.020;2023-03-16T18:02:51;12.20;84.80
43099;DHT22;28715;51.988;6.020;2023-03-16T18:05:34;12.10;84.90